»·PEaware :: N787PG 8W5-KYKM

N787PG :: 8W5-KYKM

FLIGHT INFORMATION

Flight Status: Arrived
Operator: Privately registered:
United States
More flights under this callsign
Pilot: Gareth S. (19921)
Aircraft: CIRRUS SR-22 TURBO
(S22T)
More flights by this aircraft type
Origin: 8W5 Apex Airpark
United States
Destination: KYKM Yakima Air Term/Mcallister
United States
More flights between these airports :: More routes between these airports
Route: +ELN V25 CIDOG
File this flight plan on PilotEdge
Remarks:
Altitude:
(Current/Filed)
11,000ft
Speed:
(Current/Filed)
150kts
Departed: 06-Nov-20 03:27 PM
Arrived: 06-Nov-20 04:30 PM
Distance/Time
Traveled:
111nm/1:03
Distance/Time
To Go:
Arrived

Flight Plot

Page will automatically refresh every two minutes.

Flight plan parsing failed; only flown route is shown


Map Options




Map Legend


Flown Route
Filed Route
Departure Airport
Arrival Airport
Navaid (VOR, NDB)
Fix

Horizontal Profiles

Position Reports

Time Latitude Longitude Heading Altitude Ground
Speed
06-Nov-20 15:07 47.659965 -122.732246 165 524ft 0kts
06-Nov-20 15:08 47.659865 -122.732251 199 525ft 0kts
06-Nov-20 15:09 47.659943 -122.732641 202 523ft 2kts
06-Nov-20 15:10 47.658796 -122.732881 186 529ft 7kts
06-Nov-20 15:11 47.655870 -122.733477 188 516ft 10kts
06-Nov-20 15:12 47.654647 -122.733702 188 510ft 0kts
06-Nov-20 15:13 47.653567 -122.733954 181 509ft 9kts
06-Nov-20 15:14 47.653062 -122.733630 251 508ft 0kts
06-Nov-20 15:15 47.653062 -122.733630 251 508ft 0kts
06-Nov-20 15:16 47.653062 -122.733630 251 508ft 0kts
06-Nov-20 15:17 47.653062 -122.733630 251 508ft 0kts
06-Nov-20 15:18 47.653062 -122.733630 251 508ft 0kts
06-Nov-20 15:19 47.653062 -122.733630 251 508ft 0kts
06-Nov-20 15:20 47.653062 -122.733630 251 508ft 0kts
06-Nov-20 15:21 47.653062 -122.733630 251 508ft 0kts
06-Nov-20 15:22 47.653062 -122.733630 251 508ft 0kts
06-Nov-20 15:23 47.653062 -122.733630 251 508ft 0kts
06-Nov-20 15:24 47.653062 -122.733630 251 508ft 0kts
06-Nov-20 15:24 47.653062 -122.733630 251 508ft 0kts
06-Nov-20 15:26 47.653062 -122.733630 251 508ft 0kts
06-Nov-20 15:26 47.658643 -122.732843 11 694ft 78kts
06-Nov-20 15:28 47.633921 -122.728493 184 2542ft 117kts
06-Nov-20 15:28 47.601579 -122.732466 182 3454ft 151kts
06-Nov-20 15:29 47.574893 -122.705122 104 5145ft 129kts
06-Nov-20 15:30 47.559487 -122.655992 109 6684ft 132kts
06-Nov-20 15:31 47.543616 -122.605928 103 8101ft 135kts
06-Nov-20 15:32 47.530876 -122.551629 102 9423ft 145kts
06-Nov-20 15:33 47.517419 -122.493598 102 10638ft 149kts
06-Nov-20 15:34 47.502533 -122.429196 104 11011ft 183kts
06-Nov-20 15:35 47.485223 -122.354996 104 10998ft 190kts
06-Nov-20 15:36 47.468228 -122.282176 105 10998ft 179kts
06-Nov-20 15:37 47.451689 -122.211424 104 11000ft 178kts
06-Nov-20 15:38 47.435167 -122.140984 104 10997ft 178kts
06-Nov-20 15:39 47.419345 -122.073781 104 10979ft 179kts
06-Nov-20 15:40 47.402801 -122.003729 105 10950ft 179kts
06-Nov-20 15:41 47.386201 -121.933673 105 10931ft 179kts
06-Nov-20 15:42 47.369612 -121.863838 105 10916ft 178kts
06-Nov-20 15:43 47.352901 -121.793866 104 10913ft 178kts
06-Nov-20 15:44 47.336252 -121.724051 105 10906ft 177kts
06-Nov-20 15:45 47.319598 -121.654598 105 10908ft 177kts
06-Nov-20 15:46 47.302836 -121.584907 105 10908ft 177kts
06-Nov-20 15:47 47.286072 -121.515519 104 10908ft 176kts
06-Nov-20 15:48 47.269300 -121.446234 104 10925ft 175kts
06-Nov-20 15:49 47.252747 -121.378057 104 11000ft 175kts
06-Nov-20 15:50 47.236211 -121.310199 105 11000ft 176kts
06-Nov-20 15:51 47.219791 -121.243056 105 11001ft 176kts
06-Nov-20 15:52 47.202881 -121.174031 105 10999ft 176kts
06-Nov-20 15:53 47.185876 -121.104864 105 10991ft 176kts
06-Nov-20 15:54 47.169206 -121.037266 105 10983ft 176kts
06-Nov-20 15:55 47.152321 -120.969053 105 10975ft 176kts
06-Nov-20 15:56 47.135349 -120.900614 105 10978ft 175kts
06-Nov-20 15:57 47.118454 -120.832747 104 11010ft 174kts
06-Nov-20 15:58 47.103698 -120.764422 109 10916ft 178kts
06-Nov-20 15:59 47.084982 -120.697939 105 9893ft 168kts
06-Nov-20 16:00 47.068575 -120.633564 103 8880ft 166kts
06-Nov-20 16:01 47.052285 -120.568975 103 7885ft 167kts
06-Nov-20 16:02 47.035969 -120.504258 103 6897ft 169kts
06-Nov-20 16:03 47.006235 -120.456067 171 6012ft 179kts
06-Nov-20 16:04 46.960356 -120.454154 175 6012ft 154kts
06-Nov-20 16:05 46.913804 -120.453329 176 6027ft 175kts
06-Nov-20 16:06 46.863861 -120.452488 176 6017ft 179kts
06-Nov-20 16:07 46.813129 -120.451627 176 6015ft 179kts
06-Nov-20 16:08 46.785772 -120.411317 88 6020ft 154kts
06-Nov-20 16:09 46.776633 -120.348786 99 6016ft 157kts
06-Nov-20 16:10 46.758352 -120.288151 110 6017ft 161kts
06-Nov-20 16:11 46.731534 -120.233937 123 6015ft 166kts
06-Nov-20 16:12 46.696395 -120.188123 136 6010ft 171kts
06-Nov-20 16:13 46.653671 -120.153534 150 6009ft 176kts
06-Nov-20 16:14 46.605417 -120.133471 168 6008ft 177kts
06-Nov-20 16:15 46.555988 -120.130168 183 6008ft 177kts
06-Nov-20 16:16 46.505416 -120.144086 198 5277ft 182kts
06-Nov-20 16:17 46.470686 -120.182867 286 4653ft 156kts
06-Nov-20 16:18 46.491294 -120.235420 293 4010ft 145kts
06-Nov-20 16:19 46.504139 -120.287188 295 3857ft 132kts
06-Nov-20 16:20 46.515679 -120.333823 293 3825ft 122kts
06-Nov-20 16:21 46.525756 -120.373972 293 3591ft 100kts
06-Nov-20 16:22 46.535208 -120.412759 291 2754ft 99kts
06-Nov-20 16:23 46.545450 -120.453019 289 2219ft 117kts
06-Nov-20 16:24 46.559813 -120.492501 303 2141ft 109kts
06-Nov-20 16:25 46.578640 -120.526462 327 2311ft 107kts
06-Nov-20 16:26 46.595041 -120.559908 285 2183ft 101kts
06-Nov-20 16:27 46.582124 -120.584412 170 1800ft 102kts
06-Nov-20 16:28 46.570876 -120.552791 111 1089ft 53kts
06-Nov-20 16:29 46.570902 -120.548113 105 1082ft 11kts
06-Nov-20 16:30 46.569884 -120.542929 2 1072ft 7kts
06-Nov-20 16:31 46.570157 -120.542669 88 1072ft 0kts
06-Nov-20 16:32 46.570157 -120.542669 88 1072ft 0kts
06-Nov-20 16:33 46.570157 -120.542669 88 1072ft 0kts
06-Nov-20 16:34 46.570157 -120.542669 88 1072ft 0kts
06-Nov-20 16:35 46.570157 -120.542669 88 1072ft 0kts
06-Nov-20 16:36 46.570157 -120.542669 88 1072ft 0kts
06-Nov-20 16:37 46.570157 -120.542669 88 1072ft 0kts
06-Nov-20 16:38 46.570157 -120.542669 88 1072ft 0kts
06-Nov-20 16:39 46.570157 -120.542669 88 1072ft 0kts
06-Nov-20 16:40 46.570157 -120.542669 88 1072ft 0kts
06-Nov-20 16:41 46.570157 -120.542669 88 1072ft 0kts
06-Nov-20 16:42 46.570157 -120.542669 88 1072ft 0kts
06-Nov-20 16:43 46.570157 -120.542669 88 1072ft 0kts

Navigation Log

Ident Type
Flight plan parsing failed, navigation log unavailable